Time;durP1;ratioP1;P1;durP2;ratioP2;P2;SDS_P1;SDS_P2;PMS_P1;PMS_P2;Temp;Humidity;BMP_temperature;BMP_pressure;BME280_temperature;BME280_humidity;BME280_pressure;Samples;Min_cycle;Max_cycle;Signal;HPM_P1;HPM_P2
2022/09/22 00:03:02;;;;;;;15.80;9.38;;;;;;;10.59;100.00;101031.66;2824241;82;21113;-88
2022/09/22 00:07:04;;;;;;;9.20;7.92;;;;;;;10.64;100.00;101029.05;2801546;83;21524;-88
2022/09/22 00:11:19;;;;;;;11.70;7.67;;;;;;;10.56;100.00;101028.25;2832805;82;21064;-88
2022/09/22 00:15:21;;;;;;;14.85;7.75;;;;;;;10.49;100.00;101026.96;2812790;83;21397;-87
2022/09/22 00:19:33;;;;;;;13.75;8.43;;;;;;;10.50;100.00;101025.17;2831377;83;21031;-87
2022/09/22 00:23:35;;;;;;;12.63;7.15;;;;;;;10.56;100.00;101023.40;2817823;83;21078;-87
2022/09/22 00:27:38;;;;;;;9.45;6.92;;;;;;;10.65;100.00;101012.12;2828351;82;21067;-87
2022/09/22 00:31:41;;;;;;;11.63;6.53;;;;;;;10.76;100.00;101007.84;2826822;82;21011;-88
2022/09/22 00:35:42;;;;;;;8.05;7.37;;;;;;;10.78;100.00;101005.45;2808414;83;21483;-87
2022/09/22 00:39:43;;;;;;;6.97;6.15;;;;;;;10.74;100.00;101001.78;2835061;82;21045;-87
2022/09/22 00:43:49;;;;;;;7.28;5.78;;;;;;;10.47;100.00;101004.94;2838109;82;21051;-87
2022/09/22 00:47:50;;;;;;;7.53;6.37;;;;;;;10.28;100.00;101008.02;2817489;83;21570;-87
2022/09/22 00:51:52;;;;;;;9.18;7.10;;;;;;;10.10;100.00;101016.77;2838808;83;21457;-87
2022/09/22 00:56:05;;;;;;;10.72;7.42;;;;;;;10.08;100.00;101019.55;2822842;83;21012;-88
2022/09/22 01:00:10;;;;;;;9.75;7.05;;;;;;;10.00;100.00;101012.55;2824620;83;21102;-87
2022/09/22 01:04:11;;;;;;;10.38;8.53;;;;;;;9.97;100.00;101012.30;2819256;83;21346;-87
2022/09/22 01:08:14;;;;;;;8.65;7.55;;;;;;;9.93;100.00;101005.95;2796123;83;21033;-87
2022/09/22 01:12:15;;;;;;;10.35;7.35;;;;;;;9.98;100.00;101002.50;2795155;83;21380;-87
2022/09/22 01:16:25;;;;;;;9.88;7.37;;;;;;;10.04;100.00;101002.57;2815090;82;21095;-85
2022/09/22 01:20:40;;;;;;;8.10;6.80;;;;;;;10.03;100.00;101004.86;2798042;83;21102;-87
2022/09/22 01:25:02;;;;;;;12.63;6.97;;;;;;;9.97;100.00;101002.13;2833762;83;21654;-87
2022/09/22 01:29:28;;;;;;;7.12;5.15;;;;;;;9.77;100.00;101003.49;2797656;83;20991;-87
2022/09/22 01:33:52;;;;;;;7.62;5.42;;;;;;;9.95;100.00;100998.73;2769387;85;21039;-87
2022/09/22 01:38:39;;;;;;;8.15;5.15;;;;;;;10.04;100.00;100999.45;2754854;85;21052;-87
2022/09/22 01:42:54;;;;;;;7.77;6.23;;;;;;;10.09;100.00;100992.46;2772017;85;21581;-87
2022/09/22 01:47:03;;;;;;;10.78;5.15;;;;;;;10.12;100.00;100997.10;2844737;82;21016;-87
2022/09/22 01:51:24;;;;;;;8.40;5.60;;;;;;;9.90;100.00;100999.03;2842680;82;21114;-87
2022/09/22 01:55:34;;;;;;;6.05;5.25;;;;;;;9.68;100.00;101009.78;2868876;82;21065;-87
2022/09/22 01:59:39;;;;;;;12.05;6.72;;;;;;;9.57;100.00;101013.15;2864994;82;21048;-87
2022/09/22 02:03:54;;;;;;;8.63;5.65;;;;;;;9.55;100.00;101016.39;2868843;81;21062;-87
2022/09/22 02:07:58;;;;;;;9.63;5.07;;;;;;;9.70;100.00;101015.00;2838733;81;21613;-87
2022/09/22 02:12:00;;;;;;;10.93;5.60;;;;;;;9.72;100.00;101010.44;2911350;80;21531;-88
2022/09/22 02:16:03;;;;;;;9.78;5.60;;;;;;;9.76;100.00;101001.80;2879407;80;21538;-88
2022/09/22 02:20:05;;;;;;;10.03;5.92;;;;;;;9.65;100.00;100998.53;2801076;83;21092;-87
2022/09/22 02:24:29;;;;;;;7.97;5.65;;;;;;;9.40;100.00;100992.16;2808570;82;21015;-86
2022/09/22 02:28:33;;;;;;;5.50;3.92;;;;;;;9.31;100.00;100996.77;2830950;82;21046;-87
2022/09/22 02:32:38;;;;;;;6.25;4.50;;;;;;;9.29;100.00;100988.42;2803829;83;21029;-87
2022/09/22 02:36:50;;;;;;;8.75;5.97;;;;;;;9.32;100.00;100984.70;2812792;83;21627;-87
2022/09/22 02:41:12;;;;;;;11.38;5.30;;;;;;;9.38;100.00;100983.45;2824173;83;21031;-87
2022/09/22 02:45:30;;;;;;;8.13;5.28;;;;;;;9.38;100.00;100981.66;2805322;83;21078;-87
2022/09/22 02:49:32;;;;;;;7.05;5.62;;;;;;;9.24;100.00;100985.22;2816152;83;21027;-87
2022/09/22 02:53:35;;;;;;;9.58;7.10;;;;;;;8.95;100.00;100987.94;2830107;82;21047;-87
2022/09/22 02:57:36;;;;;;;10.13;7.95;;;;;;;8.78;100.00;100988.16;2806160;83;21091;-84
2022/09/22 03:01:38;;;;;;;13.13;6.70;;;;;;;8.70;100.00;100985.52;2773397;83;21015;-86
2022/09/22 03:05:39;;;;;;;15.13;6.72;;;;;;;8.77;100.00;100986.45;2797002;83;21028;-86
2022/09/22 03:09:40;;;;;;;11.12;6.70;;;;;;;8.84;100.00;100985.11;2828013;83;21039;-87
2022/09/22 03:13:42;;;;;;;9.35;6.85;;;;;;;8.90;100.00;100984.73;2833841;83;20964;-87
2022/09/22 03:17:43;;;;;;;10.08;7.33;;;;;;;8.86;100.00;100984.56;2809246;83;21007;-86
2022/09/22 03:21:44;;;;;;;12.40;8.18;;;;;;;8.80;100.00;100992.89;2805287;83;21070;-87
2022/09/22 03:25:46;;;;;;;11.75;7.47;;;;;;;8.76;100.00;100991.38;2800068;83;21620;-87
2022/09/22 03:29:47;;;;;;;14.75;7.92;;;;;;;8.75;100.00;100991.88;2795441;83;21077;-87
2022/09/22 03:33:48;;;;;;;10.80;7.75;;;;;;;8.81;100.00;100986.63;2806141;83;21023;-87
2022/09/22 03:37:49;;;;;;;15.75;6.70;;;;;;;8.77;100.00;100983.80;2823062;83;20991;-88
2022/09/22 03:41:51;;;;;;;8.30;6.42;;;;;;;8.73;100.00;100984.95;2762408;83;21574;-87
2022/09/22 03:46:00;;;;;;;8.30;7.20;;;;;;;8.70;100.00;100978.89;2798672;83;20991;-87
2022/09/22 03:50:01;;;;;;;9.45;7.45;;;;;;;8.73;100.00;100988.44;2787566;82;21516;-87
2022/09/22 03:54:03;;;;;;;8.63;7.17;;;;;;;8.61;100.00;100984.76;2828946;83;20998;-87
2022/09/22 03:58:04;;;;;;;11.43;8.50;;;;;;;8.55;100.00;100979.84;2841891;82;21086;-87
2022/09/22 04:02:05;;;;;;;7.90;6.72;;;;;;;8.42;100.00;100979.23;2794899;83;21713;-87
2022/09/22 04:06:07;;;;;;;10.55;6.85;;;;;;;8.40;100.00;100990.41;2856460;82;21113;-87
2022/09/22 04:10:08;;;;;;;8.55;7.12;;;;;;;8.38;100.00;100989.66;2838073;82;20999;-86
2022/09/22 04:14:10;;;;;;;13.78;8.50;;;;;;;8.49;100.00;100994.30;2847383;81;21494;-87
2022/09/22 04:18:13;;;;;;;13.15;8.68;;;;;;;8.54;100.00;100992.73;2829287;82;21173;-87
2022/09/22 04:22:14;;;;;;;9.68;8.48;;;;;;;8.49;100.00;101002.74;2837953;82;20996;-85
2022/09/22 04:26:16;;;;;;;10.20;8.90;;;;;;;8.48;100.00;101005.02;2848054;82;21976;-86
2022/09/22 04:30:17;;;;;;;10.58;7.85;;;;;;;8.42;100.00;101012.87;2780257;84;21121;-86
2022/09/22 04:34:18;;;;;;;12.47;7.72;;;;;;;8.36;100.00;101010.61;2853363;81;21574;-87
2022/09/22 04:38:19;;;;;;;17.10;10.13;;;;;;;8.31;100.00;101006.90;2819149;83;21057;-87
2022/09/22 04:42:21;;;;;;;11.18;8.25;;;;;;;8.31;100.00;101012.20;2826853;83;21044;-87
2022/09/22 04:46:23;;;;;;;13.70;9.00;;;;;;;8.44;100.00;101011.81;2848942;82;21023;-86
2022/09/22 04:50:24;;;;;;;11.18;7.80;;;;;;;8.60;100.00;101012.23;2842228;83;21066;-87
2022/09/22 04:54:25;;;;;;;11.00;8.33;;;;;;;8.73;100.00;101023.41;2827960;83;21019;-87
2022/09/22 04:58:26;;;;;;;15.58;8.13;;;;;;;8.85;100.00;101023.48;2781960;84;21039;-87
2022/09/22 05:02:28;;;;;;;15.05;10.98;;;;;;;9.00;100.00;101019.01;2839504;82;20999;-87
2022/09/22 05:06:30;;;;;;;14.30;7.78;;;;;;;9.43;100.00;101018.51;2839661;82;21712;-87
2022/09/22 05:10:33;;;;;;;11.83;8.58;;;;;;;9.94;100.00;101023.14;2834750;82;21060;-87
2022/09/22 05:14:34;;;;;;;12.75;7.10;;;;;;;10.57;100.00;101020.64;2841153;83;21030;-87
2022/09/22 05:18:35;;;;;;;11.15;7.95;;;;;;;11.14;100.00;101022.86;2808900;84;21412;-87
2022/09/22 05:22:40;;;;;;;13.48;7.95;;;;;;;11.51;100.00;101020.16;2784112;84;21035;-87
2022/09/22 05:26:41;;;;;;;11.10;6.15;;;;;;;11.80;100.00;101014.48;2807008;83;21485;-88
2022/09/22 05:30:42;;;;;;;8.15;7.25;;;;;;;12.05;98.82;101006.44;2787874;83;21604;-88
2022/09/22 05:34:43;;;;;;;11.30;6.83;;;;;;;12.31;98.43;101021.77;2790385;83;21011;-88
2022/09/22 05:38:45;;;;;;;7.28;5.33;;;;;;;12.56;96.16;101026.05;2812061;83;21009;-89
2022/09/22 05:42:50;;;;;;;7.67;5.70;;;;;;;12.64;95.21;101025.91;2796673;83;21003;-88
2022/09/22 05:46:51;;;;;;;7.33;5.45;;;;;;;12.89;97.68;101023.48;2743506;83;21603;-85
2022/09/22 05:50:53;;;;;;;6.90;5.53;;;;;;;13.22;94.50;101023.55;2805597;83;21027;-89
2022/09/22 05:54:54;;;;;;;10.75;6.50;;;;;;;13.55;95.26;101021.78;2789722;84;21066;-86
2022/09/22 05:58:56;;;;;;;6.50;5.75;;;;;;;13.77;92.69;101030.21;2812138;83;21075;-86
2022/09/22 06:02:57;;;;;;;5.72;5.15;;;;;;;13.99;89.70;101031.08;2790377;84;21023;-89
2022/09/22 06:06:59;;;;;;;7.10;4.75;;;;;;;14.21;88.21;101033.25;2805390;83;21068;-90
2022/09/22 06:11:00;;;;;;;5.00;4.03;;;;;;;14.19;85.63;101044.08;2786557;84;21067;-88
2022/09/22 06:15:03;;;;;;;8.28;4.97;;;;;;;14.24;84.77;101040.51;2790301;83;21011;-90
2022/09/22 06:19:04;;;;;;;6.62;4.60;;;;;;;14.31;85.18;101038.66;2784182;83;21638;-90
2022/09/22 06:23:05;;;;;;;7.53;5.17;;;;;;;14.37;85.42;101032.77;2795011;83;20988;-90
2022/09/22 06:27:07;;;;;;;8.60;5.25;;;;;;;14.33;84.49;101036.70;2800784;83;21138;-90
2022/09/22 06:31:08;;;;;;;5.47;4.42;;;;;;;14.24;84.64;101037.83;2774734;84;21074;-89
2022/09/22 06:35:10;;;;;;;5.90;4.85;;;;;;;14.24;85.84;101039.67;2772263;84;21004;-87
2022/09/22 06:39:12;;;;;;;7.85;4.53;;;;;;;14.21;85.44;101038.10;2776399;84;21031;-88
2022/09/22 06:43:21;;;;;;;8.50;6.25;;;;;;;14.22;86.47;101037.13;2813360;83;21087;-88
2022/09/22 06:47:22;;;;;;;7.90;5.53;;;;;;;14.24;85.82;101042.35;2790290;84;21026;-89
2022/09/22 06:51:26;;;;;;;11.57;5.17;;;;;;;14.42;85.89;101051.48;2777382;83;21031;-88
2022/09/22 06:55:29;;;;;;;6.33;4.83;;;;;;;14.46;84.80;101050.73;2808495;82;20992;-88
2022/09/22 06:59:30;;;;;;;6.83;5.58;;;;;;;14.66;85.22;101044.14;2797445;84;21008;-87
2022/09/22 07:03:33;;;;;;;5.72;4.92;;;;;;;14.76;84.60;101042.88;2820355;83;20991;-89
2022/09/22 07:07:34;;;;;;;8.83;5.50;;;;;;;14.95;84.43;101045.62;2802137;83;20988;-88
2022/09/22 07:11:36;;;;;;;5.40;4.58;;;;;;;15.10;83.27;101047.42;2826703;83;21059;-88
2022/09/22 07:15:37;;;;;;;6.95;5.42;;;;;;;15.22;83.08;101053.98;2806663;83;21568;-87
2022/09/22 07:19:38;;;;;;;8.23;5.22;;;;;;;15.17;82.69;101058.44;2792809;83;21350;-88
2022/09/22 07:23:40;;;;;;;6.85;5.62;;;;;;;15.16;82.69;101058.56;2809451;83;21520;-87
2022/09/22 07:27:41;;;;;;;7.60;5.70;;;;;;;15.03;82.28;101054.29;2800251;83;21008;-88
2022/09/22 07:31:43;;;;;;;6.33;5.65;;;;;;;14.91;81.24;101055.39;2820973;83;21027;-88
2022/09/22 07:35:44;;;;;;;9.50;5.70;;;;;;;15.03;82.98;101060.16;2830287;83;20976;-87
2022/09/22 07:39:45;;;;;;;6.55;4.42;;;;;;;15.31;85.27;101067.06;2791910;83;21060;-88
2022/09/22 07:43:55;;;;;;;7.78;5.03;;;;;;;15.46;81.48;101060.83;2834744;83;21560;-87
2022/09/22 07:52:15;;;;;;;6.95;5.65;;;;;;;15.81;82.19;101071.02;2825371;83;21568;-88
2022/09/22 07:56:20;;;;;;;7.75;5.05;;;;;;;15.93;81.75;101070.91;2821741;83;21051;-87
2022/09/22 08:00:25;;;;;;;9.93;6.05;;;;;;;15.77;77.69;101070.08;2825986;83;21034;-88
2022/09/22 08:04:29;;;;;;;6.65;5.90;;;;;;;15.67;79.05;101071.42;2814880;83;21382;-87
2022/09/22 08:08:31;;;;;;;8.95;5.40;;;;;;;15.69;76.61;101068.10;2815985;82;21032;-87
2022/09/22 08:12:32;;;;;;;9.45;7.08;;;;;;;15.66;77.36;101061.68;2828742;83;21014;-88
2022/09/22 08:16:37;;;;;;;20.97;15.63;;;;;;;15.66;77.28;101064.36;2821174;83;21051;-88
2022/09/22 08:20:42;;;;;;;10.45;8.50;;;;;;;15.78;80.21;101064.59;2810295;83;21055;-88
2022/09/22 08:24:44;;;;;;;8.95;5.75;;;;;;;15.94;77.76;101065.90;2821465;83;21047;-87
2022/09/22 08:28:51;;;;;;;8.78;5.87;;;;;;;15.83;76.39;101063.67;2806978;83;21039;-88
2022/09/22 08:32:52;;;;;;;10.60;6.08;;;;;;;15.80;77.49;101069.80;2821722;83;21055;-87
2022/09/22 08:36:54;;;;;;;13.20;10.98;;;;;;;15.85;76.71;101069.73;2822952;83;21063;-88
2022/09/22 08:41:13;;;;;;;5.95;4.53;;;;;;;16.08;79.56;101065.95;2826024;83;21027;-85
2022/09/22 08:45:35;;;;;;;3.95;2.92;;;;;;;16.34;78.64;101071.56;2806746;83;20996;-88
2022/09/22 08:54:07;;;;;;;1.85;1.75;;;;;;;16.41;76.94;101061.09;2775153;83;21061;-88
2022/09/22 08:58:31;;;;;;;4.55;1.80;;;;;;;16.48;74.70;101062.68;2848905;82;21031;-88
2022/09/22 09:02:59;;;;;;;3.05;0.95;;;;;;;16.38;73.16;101060.02;2865795;82;21039;-88
2022/09/22 09:07:18;;;;;;;1.67;1.40;;;;;;;16.45;73.26;101056.27;2819812;83;21018;-88
2022/09/22 09:11:50;;;;;;;6.17;2.27;;;;;;;16.49;72.54;101059.00;2839811;81;21050;-88
2022/09/22 09:16:30;;;;;;;1.65;0.90;;;;;;;16.54;72.05;101051.38;2841821;82;21019;-88
2022/09/22 09:20:37;;;;;;;2.33;1.15;;;;;;;16.58;69.79;101050.09;2846035;81;21086;-88
2022/09/22 09:24:45;;;;;;;3.80;1.22;;;;;;;16.63;69.83;101057.70;2829982;83;21069;-86
2022/09/22 09:28:52;;;;;;;1.70;1.45;;;;;;;16.70;68.82;101048.06;2790142;83;21115;-87
2022/09/22 09:33:01;;;;;;;4.12;0.70;;;;;;;16.79;67.79;101049.02;2797659;82;21010;-88
2022/09/22 09:37:08;;;;;;;1.90;1.00;;;;;;;16.87;71.00;101049.11;2810217;83;21074;-88
2022/09/22 09:41:30;;;;;;;1.90;0.72;;;;;;;16.50;68.31;101051.30;2801214;83;21051;-88
2022/09/22 09:45:40;;;;;;;2.33;0.47;;;;;;;16.40;67.86;101052.19;2804930;83;21626;-88
2022/09/22 09:49:42;;;;;;;1.10;0.30;;;;;;;16.46;66.74;101051.24;2781536;84;21038;-88
2022/09/22 09:53:46;;;;;;;1.10;0.45;;;;;;;16.56;65.12;101048.05;2783773;84;21058;-88
2022/09/22 09:58:08;;;;;;;0.60;0.50;;;;;;;16.69;65.11;101041.83;2833816;81;21543;-88
2022/09/22 10:02:15;;;;;;;1.35;0.80;;;;;;;16.77;65.99;101049.66;2812104;83;21063;-88
2022/09/22 10:06:25;;;;;;;1.80;0.90;;;;;;;16.92;67.36;101045.98;2787367;84;21043;-85
2022/09/22 10:10:37;;;;;;;1.42;0.88;;;;;;;17.00;65.37;101040.76;2790721;83;21003;-88
2022/09/22 10:14:38;;;;;;;1.15;0.93;;;;;;;17.11;64.75;101034.33;2794527;83;21087;-88
2022/09/22 10:18:40;;;;;;;0.53;0.53;;;;;;;17.05;64.57;101038.94;2781210;83;21063;-88
2022/09/22 10:22:42;;;;;;;2.30;0.70;;;;;;;16.83;66.98;101034.28;2779715;83;21059;-87
2022/09/22 10:26:48;;;;;;;2.50;0.75;;;;;;;16.82;67.27;101028.56;2779767;83;21020;-88
2022/09/22 10:31:03;;;;;;;2.17;1.15;;;;;;;16.84;66.81;101028.77;2806026;84;21028;-88
2022/09/22 10:35:28;;;;;;;1.00;0.50;;;;;;;16.87;65.28;101034.33;2812558;83;21035;-87
2022/09/22 10:39:46;;;;;;;1.12;0.40;;;;;;;16.88;64.84;101028.47;2813994;84;21043;-89
2022/09/22 10:43:58;;;;;;;2.00;1.10;;;;;;;16.95;63.77;101031.76;2815597;83;21039;-87
2022/09/22 10:48:33;;;;;;;0.68;0.33;;;;;;;16.99;61.32;101031.84;2813051;83;21082;-88
2022/09/22 10:52:46;;;;;;;3.42;0.90;;;;;;;17.13;61.85;101024.27;2715722;86;21090;-87
2022/09/22 10:56:53;;;;;;;0.57;0.35;;;;;;;17.28;61.67;101025.42;2739128;85;21027;-89
2022/09/22 11:01:06;;;;;;;2.60;0.72;;;;;;;17.40;60.61;101018.48;2789238;85;21015;-88
2022/09/22 11:15:31;;;;;;;0.82;0.55;;;;;;;17.41;58.83;101013.45;2725351;84;21027;-88
2022/09/22 11:20:09;;;;;;;1.32;0.82;;;;;;;17.53;59.27;101010.89;2790658;84;21096;-88
2022/09/22 11:24:54;;;;;;;0.62;0.23;;;;;;;17.55;56.05;101006.20;2767452;84;21066;-88
2022/09/22 11:29:40;;;;;;;0.93;0.65;;;;;;;17.59;56.66;100998.68;2835211;82;21006;-89
2022/09/22 11:34:13;;;;;;;1.90;0.30;;;;;;;17.63;57.87;100993.33;2801095;83;21071;-89
2022/09/22 11:38:57;;;;;;;0.20;0.10;;;;;;;17.52;57.26;100998.93;2822757;83;21074;-87
2022/09/22 11:43:22;;;;;;;0.37;0.28;;;;;;;17.63;56.08;100990.64;2806016;83;21408;-89
2022/09/22 11:47:38;;;;;;;0.30;0.20;;;;;;;17.77;56.76;100978.47;2636312;88;21042;-89
2022/09/22 11:52:08;;;;;;;0.72;0.30;;;;;;;17.79;61.09;100982.36;2658114;88;21039;-89
2022/09/22 11:56:37;;;;;;;1.42;0.50;;;;;;;17.80;57.72;100971.42;2641939;88;21034;-88
2022/09/22 12:00:52;;;;;;;2.08;0.70;;;;;;;17.72;60.67;100967.34;2639962;88;21014;-88
2022/09/22 12:05:02;;;;;;;0.72;0.33;;;;;;;17.78;56.88;100950.56;2614592;89;21056;-89
2022/09/22 12:09:33;;;;;;;0.78;0.42;;;;;;;17.80;55.88;100959.31;2697414;86;21062;-89
2022/09/22 12:13:40;;;;;;;0.78;0.53;;;;;;;17.80;57.18;100949.90;2689604;86;21066;-89
2022/09/22 12:17:47;;;;;;;0.55;0.20;;;;;;;17.88;57.35;100954.98;2690057;86;21070;-89
2022/09/22 12:22:27;;;;;;;0.30;0.23;;;;;;;17.87;61.12;100958.67;2706233;85;21693;-90
2022/09/22 12:26:35;;;;;;;1.25;0.17;;;;;;;17.83;57.31;100945.54;2830281;83;21621;-90
2022/09/22 12:30:37;;;;;;;0.50;0.30;;;;;;;17.76;59.53;100951.22;2813823;83;21550;-86
2022/09/22 12:34:42;;;;;;;0.65;0.20;;;;;;;17.56;56.60;100948.72;2784724;84;21026;-90
2022/09/22 12:38:45;;;;;;;0.20;0.10;;;;;;;17.44;55.37;100942.39;2806755;83;21022;-90
2022/09/22 12:42:50;;;;;;;0.35;0.30;;;;;;;17.18;54.25;100949.38;2816936;83;21059;-89
2022/09/22 12:47:05;;;;;;;0.10;0.10;;;;;;;17.23;53.76;100947.59;2816661;83;21550;-91
2022/09/22 12:51:30;;;;;;;0.30;0.13;;;;;;;17.18;56.33;100922.50;2783622;83;21684;-91
2022/09/22 12:55:39;;;;;;;1.52;0.40;;;;;;;17.38;56.56;100941.16;2783096;83;21090;-90
2022/09/22 12:59:48;;;;;;;0.37;0.30;;;;;;;17.51;54.11;100945.66;2812920;83;21041;-90
2022/09/22 13:03:51;;;;;;;0.82;0.40;;;;;;;17.57;54.73;100942.82;2816052;83;21000;-87
2022/09/22 13:07:54;;;;;;;0.37;0.20;;;;;;;17.62;56.25;100944.56;2820481;83;21004;-88
2022/09/22 13:12:17;;;;;;;2.20;0.82;;;;;;;17.69;52.72;100939.41;2828305;83;21055;-87
2022/09/22 13:16:24;;;;;;;0.65;0.20;;;;;;;17.78;54.72;100937.59;2837359;82;21063;-90
2022/09/22 13:20:30;;;;;;;0.80;0.53;;;;;;;17.89;54.18;100936.00;2830929;83;21007;-90
2022/09/22 13:24:31;;;;;;;0.82;0.30;;;;;;;17.99;55.83;100931.37;2817476;83;21083;-91
2022/09/22 13:28:33;;;;;;;0.57;0.10;;;;;;;17.98;53.35;100920.75;2828449;82;20986;-90
2022/09/22 13:32:35;;;;;;;0.40;0.20;;;;;;;17.96;54.61;100929.48;2832605;80;21063;-91
2022/09/22 13:36:36;;;;;;;0.80;0.23;;;;;;;17.92;52.14;100924.09;2828488;83;21058;-91
2022/09/22 13:40:41;;;;;;;1.12;0.40;;;;;;;17.94;53.60;100926.11;2847999;83;20990;-90
2022/09/22 13:44:54;;;;;;;1.33;0.77;;;;;;;17.98;51.18;100912.19;2800438;83;21052;-90
2022/09/22 13:48:57;;;;;;;0.20;0.10;;;;;;;18.05;53.19;100915.09;2832272;83;21024;-90
2022/09/22 13:52:59;;;;;;;3.50;0.33;;;;;;;18.06;53.22;100912.73;2808615;83;21071;-89
2022/09/22 13:57:04;;;;;;;0.78;0.45;;;;;;;18.12;52.71;100906.73;2786354;83;21004;-91
2022/09/22 14:01:15;;;;;;;1.20;0.62;;;;;;;18.15;53.41;100907.42;2775375;84;21075;-93
2022/09/22 14:05:27;;;;;;;0.37;0.30;;;;;;;18.13;58.50;100904.39;2784869;84;21649;-93
2022/09/22 14:09:29;;;;;;;1.27;0.62;;;;;;;17.91;57.47;100914.33;2798205;83;21044;-92
2022/09/22 14:13:57;;;;;;;1.50;0.60;;;;;;;17.61;54.81;100911.08;2799464;83;21564;-93
2022/09/22 14:18:00;;;;;;;0.70;0.40;;;;;;;17.33;55.00;100907.18;2798706;83;21082;-92
2022/09/22 14:22:04;;;;;;;1.05;0.37;;;;;;;17.10;55.54;100905.80;2780889;84;21492;-92
2022/09/22 14:26:32;;;;;;;0.33;0.30;;;;;;;16.92;57.13;100905.77;2789956;84;21059;-90
2022/09/22 14:30:37;;;;;;;2.40;0.50;;;;;;;16.79;55.47;100910.14;2850697;81;21052;-93
2022/09/22 14:34:38;;;;;;;0.35;0.35;;;;;;;16.82;58.17;100904.50;2858798;82;21038;-94
2022/09/22 14:38:40;;;;;;;0.25;0.25;;;;;;;16.96;55.50;100908.49;2832993;83;21046;-94
2022/09/22 14:43:07;;;;;;;1.12;0.70;;;;;;;17.13;54.10;100901.97;2804038;84;21561;-92
2022/09/22 14:47:27;;;;;;;2.03;0.30;;;;;;;17.32;58.83;100897.42;2820938;83;21020;-92
2022/09/22 14:51:28;;;;;;;0.82;0.50;;;;;;;17.38;57.65;100900.31;2830206;83;21540;-93
2022/09/22 14:55:38;;;;;;;0.55;0.55;;;;;;;17.40;55.01;100906.41;2810093;83;21048;-94
2022/09/22 15:04:15;;;;;;;0.53;0.30;;;;;;;17.45;56.01;100891.13;2820085;83;21067;-91
2022/09/22 15:08:24;;;;;;;1.57;0.20;;;;;;;17.38;53.00;100892.76;2836770;83;21004;-94
2022/09/22 15:12:39;;;;;;;0.85;0.40;;;;;;;17.39;53.08;100891.27;2833753;83;20995;-92
2022/09/22 15:16:44;;;;;;;1.25;0.37;;;;;;;17.40;53.56;100888.06;2834221;83;20992;-92
2022/09/22 15:20:58;;;;;;;1.10;0.80;;;;;;;17.34;54.88;100888.70;2836248;83;21035;-91
2022/09/22 15:25:00;;;;;;;0.47;0.47;;;;;;;17.32;56.65;100881.30;2832113;83;21107;-92
2022/09/22 15:29:02;;;;;;;0.50;0.30;;;;;;;17.26;55.08;100878.72;2810004;82;21059;-92
2022/09/22 15:33:03;;;;;;;4.28;0.78;;;;;;;17.25;53.03;100875.17;2813238;83;21642;-92
2022/09/22 15:37:04;;;;;;;1.10;0.40;;;;;;;17.27;54.73;100867.80;2817014;83;21031;-93
2022/09/22 15:41:11;;;;;;;0.33;0.33;;;;;;;17.24;56.41;100880.20;2822979;82;21574;-91
2022/09/22 15:45:16;;;;;;;1.42;0.72;;;;;;;17.15;56.71;100879.80;2831918;83;21102;-93
2022/09/22 15:49:23;;;;;;;1.98;0.55;;;;;;;17.02;58.56;100884.72;2822905;83;21565;-89
2022/09/22 15:53:24;;;;;;;1.47;0.50;;;;;;;16.94;58.57;100880.07;2803354;83;21003;-92
2022/09/22 15:57:26;;;;;;;0.40;0.40;;;;;;;16.86;60.72;100883.52;2758947;83;21109;-93
2022/09/22 16:01:28;;;;;;;1.10;0.50;;;;;;;16.76;59.97;100881.42;2820276;83;21046;-93
2022/09/22 16:05:33;;;;;;;2.83;0.60;;;;;;;16.65;60.07;100879.80;2819912;83;21083;-93
2022/09/22 16:09:34;;;;;;;0.88;0.25;;;;;;;16.46;60.70;100874.02;2795439;83;21148;-91
2022/09/22 16:13:35;;;;;;;0.30;0.30;;;;;;;16.28;61.81;100875.68;2842827;82;21006;-91
2022/09/22 16:17:37;;;;;;;4.78;0.93;;;;;;;16.15;62.00;100867.12;2857710;82;21980;-91
2022/09/22 16:21:48;;;;;;;2.00;0.20;;;;;;;16.03;62.15;100864.30;2866916;81;20987;-91
2022/09/22 16:25:51;;;;;;;0.37;0.30;;;;;;;15.93;62.39;100867.02;2814908;84;21024;-88
2022/09/22 16:29:53;;;;;;;0.62;0.20;;;;;;;15.79;63.05;100864.25;2825127;84;21012;-91
2022/09/22 16:33:57;;;;;;;1.47;0.70;;;;;;;15.69;64.58;100868.30;2812809;83;21110;-92
2022/09/22 16:37:59;;;;;;;0.50;0.20;;;;;;;15.60;64.87;100864.66;2777989;83;21012;-92
2022/09/22 16:42:00;;;;;;;0.70;0.28;;;;;;;15.51;65.79;100869.55;2817560;84;21079;-91
2022/09/22 16:50:20;;;;;;;0.57;0.40;;;;;;;15.25;66.62;100872.33;2812592;83;21071;-93
2022/09/22 16:54:23;;;;;;;1.35;0.62;;;;;;;15.09;66.80;100874.73;2829477;84;21123;-91
2022/09/22 16:58:24;;;;;;;2.33;1.05;;;;;;;14.92;67.06;100874.95;2738040;84;21043;-92
2022/09/22 17:02:26;;;;;;;0.50;0.35;;;;;;;14.75;67.72;100871.13;2794564;84;21063;-90
2022/09/22 17:06:27;;;;;;;1.45;0.85;;;;;;;14.59;68.02;100867.13;2829396;84;21059;-94
2022/09/22 17:10:34;;;;;;;0.98;0.60;;;;;;;14.39;68.44;100871.56;2794837;83;21028;-91
2022/09/22 17:14:32;;;;;;;1.70;0.70;;;;;;;14.22;68.71;100869.06;2791227;84;21048;-91
2022/09/22 17:18:40;;;;;;;4.12;0.68;;;;;;;14.03;69.00;100862.66;2805533;83;21052;-93
2022/09/22 17:22:43;;;;;;;4.55;1.17;;;;;;;13.88;69.89;100873.34;2809481;84;21500;-93
2022/09/22 17:26:49;;;;;;;0.85;0.68;;;;;;;13.71;70.12;100866.28;2808816;84;21584;-92
2022/09/22 17:30:57;;;;;;;5.78;1.55;;;;;;;13.59;71.93;100868.69;2827086;83;21008;-89
2022/09/22 17:34:59;;;;;;;1.37;1.00;;;;;;;13.47;72.42;100871.42;2795821;83;21071;-90
2022/09/22 17:39:00;;;;;;;3.00;1.20;;;;;;;13.34;72.33;100871.59;2811265;84;21016;-88
2022/09/22 17:43:04;;;;;;;4.50;2.50;;;;;;;13.25;72.74;100877.69;2816279;83;21098;-91
2022/09/22 17:56:08;;;;;;;3.47;1.85;;;;;;;12.96;75.21;100887.66;2775720;83;31942;-89
2022/09/22 18:00:19;;;;;;;3.25;2.35;;;;;;;12.84;75.47;100880.17;2775739;82;21095;-91
2022/09/22 18:04:20;;;;;;;4.50;3.05;;;;;;;12.77;76.19;100885.63;2806499;84;21060;-89
2022/09/22 18:08:21;;;;;;;6.12;3.58;;;;;;;12.70;76.94;100890.65;2826776;83;21012;-90
2022/09/22 18:12:24;;;;;;;7.28;4.10;;;;;;;12.60;78.56;100889.22;2831811;83;21110;-88
2022/09/22 18:16:31;;;;;;;9.53;5.03;;;;;;;12.47;79.65;100891.17;2815672;83;21142;-90
2022/09/22 18:20:28;;;;;;;6.00;4.42;;;;;;;12.38;80.56;100898.09;2814839;83;21036;-90
2022/09/22 18:24:33;;;;;;;5.90;4.55;;;;;;;12.25;80.54;100892.88;2792604;83;21039;-90
2022/09/22 18:28:35;;;;;;;9.18;5.37;;;;;;;12.21;80.66;100900.77;2822323;83;21051;-90
2022/09/22 18:32:37;;;;;;;8.25;6.25;;;;;;;12.16;80.66;100897.59;2812283;83;21576;-89
2022/09/22 18:36:39;;;;;;;9.95;5.62;;;;;;;12.08;81.06;100908.39;2824819;83;21599;-89
2022/09/22 18:40:40;;;;;;;9.60;6.28;;;;;;;12.04;81.28;100907.41;2831542;83;21040;-91
2022/09/22 18:44:42;;;;;;;14.23;4.17;;;;;;;11.96;81.81;100906.64;2822060;83;21029;-91
2022/09/22 18:48:43;;;;;;;5.00;4.03;;;;;;;11.91;81.62;100900.83;2815273;83;21111;-90
2022/09/22 18:52:44;;;;;;;6.62;4.20;;;;;;;11.81;82.19;100896.70;2812704;83;21071;-89
2022/09/22 18:56:48;;;;;;;7.08;5.53;;;;;;;11.77;82.57;100897.91;2823527;83;21611;-89
2022/09/22 19:00:50;;;;;;;12.50;8.03;;;;;;;11.73;83.12;100902.63;2810517;83;21512;-89
2022/09/22 19:04:51;;;;;;;10.58;7.25;;;;;;;11.68;83.65;100899.47;2808664;84;21061;-85
2022/09/22 19:08:53;;;;;;;9.13;6.97;;;;;;;11.64;83.60;100905.51;2845490;83;21074;-88
2022/09/22 19:12:54;;;;;;;8.98;6.83;;;;;;;11.56;83.87;100900.77;2840511;82;21562;-89
2022/09/22 19:16:55;;;;;;;6.70;5.72;;;;;;;11.53;83.87;100901.50;2784484;84;21073;-86
2022/09/22 19:21:02;;;;;;;5.33;4.83;;;;;;;11.48;83.66;100902.31;2859109;83;21027;-86
2022/09/22 19:25:02;;;;;;;6.75;4.55;;;;;;;11.42;83.78;100903.65;2770502;83;21109;-89
2022/09/22 19:29:05;;;;;;;5.28;4.00;;;;;;;11.38;83.69;100904.82;2811476;83;21098;-88
2022/09/22 19:33:06;;;;;;;6.72;5.05;;;;;;;11.30;84.30;100910.75;2843533;82;21058;-88
2022/09/22 19:37:08;;;;;;;7.72;5.78;;;;;;;11.28;85.40;100915.31;2797130;83;21072;-89
2022/09/22 19:41:10;;;;;;;9.08;6.25;;;;;;;11.24;85.52;100924.04;2786572;83;21051;-90